createdAt,value
2022-10-10T00:01:36.050Z,19.16
2022-10-10T00:04:05.702Z,19.23
2022-10-10T00:06:33.639Z,19.15
2022-10-10T00:09:01.875Z,19.00
2022-10-10T00:11:29.340Z,18.91
2022-10-10T00:13:56.610Z,18.74
2022-10-10T00:16:23.680Z,18.43
2022-10-10T00:18:52.104Z,18.65
2022-10-10T00:21:19.241Z,18.71
2022-10-10T00:23:46.184Z,18.13
2022-10-10T00:26:18.580Z,18.77
2022-10-10T00:28:47.176Z,18.83
2022-10-10T00:31:14.447Z,18.98
2022-10-10T00:33:41.667Z,19.10
2022-10-10T00:36:08.762Z,19.08
2022-10-10T00:38:35.842Z,19.41
2022-10-10T00:41:03.559Z,19.40
2022-10-10T00:43:32.194Z,19.37
2022-10-10T00:45:59.213Z,19.44
2022-10-10T00:48:38.255Z,19.47
2022-10-10T00:51:11.908Z,19.68
2022-10-10T00:53:43.586Z,19.48
2022-10-10T00:56:13.120Z,19.64
2022-10-10T00:58:46.944Z,19.58
2022-10-10T01:01:14.223Z,19.30
2022-10-10T01:03:41.529Z,19.38
2022-10-10T01:06:08.709Z,19.63
2022-10-10T01:08:36.286Z,19.74
2022-10-10T01:11:21.006Z,19.64
2022-10-10T01:14:25.227Z,20.07
2022-10-10T01:17:02.736Z,20.05
2022-10-10T01:20:12.530Z,20.28
2022-10-10T01:23:28.322Z,20.17
2022-10-10T01:26:39.876Z,20.11
2022-10-10T01:29:33.682Z,20.14
2022-10-10T01:32:39.877Z,19.50
2022-10-10T01:35:28.201Z,19.42
2022-10-10T01:38:24.325Z,19.89
2022-10-10T01:41:20.258Z,19.82
2022-10-10T01:43:53.253Z,20.41
2022-10-10T01:46:20.391Z,19.37
2022-10-10T01:48:51.624Z,19.37
2022-10-10T01:51:51.256Z,19.43
2022-10-10T01:54:33.420Z,20.17
2022-10-10T01:57:34.774Z,20.71
2022-10-10T02:00:17.533Z,20.11
2022-10-10T02:02:55.795Z,19.93
2022-10-10T02:05:50.774Z,20.03
2022-10-10T02:08:34.875Z,19.62
2022-10-10T02:11:10.036Z,20.00
2022-10-10T02:13:44.966Z,19.80
2022-10-10T02:16:20.989Z,19.95
2022-10-10T02:18:50.634Z,19.96
2022-10-10T02:21:18.717Z,19.93
2022-10-10T02:23:48.860Z,19.41
2022-10-10T02:26:18.154Z,19.21
2022-10-10T02:28:59.112Z,20.19
2022-10-10T02:32:07.046Z,20.32
2022-10-10T02:34:46.356Z,19.87
2022-10-10T02:37:15.952Z,19.88
2022-10-10T02:39:57.800Z,20.34
2022-10-10T02:42:26.636Z,19.97
2022-10-10T02:44:54.523Z,19.96
2022-10-10T02:47:22.104Z,19.78
2022-10-10T02:49:49.256Z,19.67
2022-10-10T02:52:17.467Z,19.76
2022-10-10T02:54:44.812Z,19.69
2022-10-10T02:57:12.334Z,19.69
2022-10-10T02:59:39.473Z,19.78
2022-10-10T03:02:06.542Z,19.31
2022-10-10T03:04:34.744Z,19.41
2022-10-10T03:07:03.051Z,19.25
2022-10-10T03:09:30.284Z,19.43
2022-10-10T03:11:57.261Z,19.41
2022-10-10T03:14:24.278Z,19.20
2022-10-10T03:16:51.320Z,19.41
2022-10-10T03:19:19.756Z,19.54
2022-10-10T03:21:46.801Z,19.32
2022-10-10T03:24:13.823Z,19.17
2022-10-10T03:26:40.801Z,19.18
2022-10-10T03:29:08.027Z,19.23
2022-10-10T03:31:35.019Z,19.65
2022-10-10T03:34:02.064Z,19.39
2022-10-10T03:36:30.981Z,19.23
2022-10-10T03:38:57.934Z,19.08
2022-10-10T03:41:24.923Z,19.06
2022-10-10T03:43:52.067Z,19.03
2022-10-10T03:46:19.650Z,19.25
2022-10-10T03:48:46.982Z,18.96
2022-10-10T03:51:13.938Z,19.18
2022-10-10T03:53:41.073Z,19.03
2022-10-10T03:56:08.067Z,18.89
2022-10-10T03:58:35.213Z,18.82
2022-10-10T04:01:03.623Z,18.98
2022-10-10T04:03:30.681Z,18.79
2022-10-10T04:05:58.391Z,19.43
2022-10-10T04:08:25.819Z,19.24
2022-10-10T04:10:54.535Z,19.19
2022-10-10T04:13:23.176Z,19.25
2022-10-10T04:15:55.686Z,19.69
2022-10-10T04:18:23.495Z,19.41
2022-10-10T04:20:50.702Z,19.03
2022-10-10T04:23:17.929Z,18.86
2022-10-10T04:25:45.155Z,19.05
2022-10-10T04:28:14.435Z,20.02
2022-10-10T04:30:41.718Z,19.55
2022-10-10T04:33:08.810Z,19.13
2022-10-10T04:35:37.255Z,19.21
2022-10-10T04:38:05.520Z,19.14
2022-10-10T04:40:32.942Z,19.25
2022-10-10T04:43:00.205Z,19.33
2022-10-10T04:45:27.300Z,19.29
2022-10-10T04:47:55.184Z,19.36
2022-10-10T04:50:23.201Z,19.50
2022-10-10T04:52:50.592Z,19.22
2022-10-10T04:55:18.240Z,19.24
2022-10-10T04:57:45.190Z,19.23
2022-10-10T05:00:12.831Z,19.32
2022-10-10T05:02:39.727Z,19.16
2022-10-10T05:05:07.507Z,19.27
2022-10-10T05:07:34.452Z,19.10
2022-10-10T05:10:02.271Z,19.13
2022-10-10T05:12:29.185Z,19.00
2022-10-10T05:14:56.166Z,19.04
2022-10-10T05:17:23.214Z,18.98
2022-10-10T05:19:51.510Z,18.91
2022-10-10T05:22:18.460Z,19.06
2022-10-10T05:24:45.620Z,19.06
2022-10-10T05:27:12.612Z,18.88
2022-10-10T05:29:39.619Z,18.82
2022-10-10T05:32:10.119Z,18.88
2022-10-10T05:34:37.863Z,19.15
2022-10-10T05:37:04.814Z,18.61
2022-10-10T05:39:31.922Z,18.78
2022-10-10T05:41:59.214Z,18.87
2022-10-10T05:44:26.434Z,18.69
2022-10-10T05:46:53.647Z,18.58
2022-10-10T05:49:21.280Z,18.47
2022-10-10T05:51:48.298Z,18.54
2022-10-10T05:54:15.341Z,18.51
2022-10-10T05:56:42.289Z,18.40
2022-10-10T05:59:09.635Z,18.43
2022-10-10T06:01:37.212Z,18.41
2022-10-10T06:04:04.527Z,18.31
2022-10-10T06:06:31.581Z,18.32
2022-10-10T06:08:59.578Z,18.29
2022-10-10T06:11:26.735Z,18.26
2022-10-10T06:13:57.411Z,18.15
2022-10-10T06:16:26.965Z,18.47
2022-10-10T06:18:56.839Z,18.62
2022-10-10T06:21:25.072Z,18.54
2022-10-10T06:23:52.424Z,18.92
2022-10-10T06:26:19.692Z,18.83
2022-10-10T06:28:46.771Z,18.87
2022-10-10T06:31:14.804Z,18.88
2022-10-10T06:33:45.530Z,18.90
2022-10-10T06:36:14.321Z,18.78
2022-10-10T06:38:44.118Z,19.19
2022-10-10T06:41:12.932Z,19.06
2022-10-10T06:43:41.359Z,19.16
2022-10-10T06:46:09.704Z,18.95
2022-10-10T06:48:36.913Z,18.86
2022-10-10T06:51:08.724Z,18.59
2022-10-10T06:53:36.541Z,18.01
2022-10-10T06:56:04.477Z,18.29
2022-10-10T06:58:32.193Z,18.41
2022-10-10T07:01:02.546Z,18.56
2022-10-10T07:03:31.385Z,18.77
2022-10-10T07:06:01.256Z,18.64
2022-10-10T07:08:29.708Z,18.45
2022-10-10T07:10:57.285Z,18.40
2022-10-10T07:13:24.375Z,18.49
2022-10-10T07:15:51.559Z,18.50
2022-10-10T07:18:20.052Z,18.60
2022-10-10T07:20:47.520Z,18.46
2022-10-10T07:23:15.409Z,18.60
2022-10-10T07:25:43.339Z,18.35
2022-10-10T07:28:11.699Z,18.53
2022-10-10T07:30:44.057Z,18.77
2022-10-10T07:33:13.161Z,18.99
2022-10-10T07:35:40.323Z,18.66
2022-10-10T07:38:08.191Z,18.54
2022-10-10T07:40:35.369Z,18.24
2022-10-10T07:43:02.262Z,18.10
2022-10-10T07:45:29.331Z,18.22
2022-10-10T07:47:56.335Z,18.19
2022-10-10T07:50:25.909Z,18.66
2022-10-10T07:52:52.916Z,20.01
2022-10-10T07:55:20.055Z,20.18
2022-10-10T07:57:53.070Z,18.31
2022-10-10T08:00:20.892Z,18.57
2022-10-10T08:02:47.910Z,18.77
2022-10-10T08:05:14.874Z,18.92
2022-10-10T08:07:41.803Z,19.03
2022-10-10T08:10:09.892Z,19.18
2022-10-10T08:12:36.859Z,19.11
2022-10-10T08:15:06.675Z,19.62
2022-10-10T08:17:34.483Z,19.74
2022-10-10T08:20:01.548Z,19.41
2022-10-10T08:22:29.089Z,19.76
2022-10-10T08:25:20.227Z,20.25
2022-10-10T08:27:52.357Z,19.53
2022-10-10T08:30:19.520Z,19.91
2022-10-10T08:32:46.566Z,20.22
2022-10-10T08:35:13.490Z,20.01
2022-10-10T08:37:40.585Z,20.42
2022-10-10T08:40:09.285Z,20.11
2022-10-10T08:43:56.623Z,20.90
2022-10-10T08:46:35.636Z,20.56
2022-10-10T08:49:32.295Z,20.75
2022-10-10T08:52:26.426Z,21.07
2022-10-10T08:55:35.011Z,21.09
2022-10-10T08:58:33.787Z,20.50
2022-10-10T09:01:15.474Z,20.83
2022-10-10T09:03:50.434Z,20.87
2022-10-10T09:06:41.553Z,21.20
2022-10-10T09:09:43.094Z,20.44
2022-10-10T09:12:17.670Z,21.48
2022-10-10T09:15:20.774Z,21.35
2022-10-10T09:18:07.503Z,22.08
2022-10-10T09:21:08.668Z,22.53
2022-10-10T09:23:57.622Z,20.84
2022-10-10T09:26:32.667Z,22.21
2022-10-10T09:29:31.082Z,22.11
2022-10-10T09:32:18.623Z,20.86
2022-10-10T09:34:59.510Z,21.58
2022-10-10T09:37:51.712Z,21.64
2022-10-10T09:40:31.206Z,21.87
2022-10-10T09:42:59.384Z,21.94
2022-10-10T09:45:37.154Z,22.38
2022-10-10T09:48:04.412Z,22.13
2022-10-10T09:50:31.431Z,22.30
2022-10-10T09:52:58.932Z,21.81
2022-10-10T09:55:33.915Z,21.74
2022-10-10T09:58:34.635Z,23.57
2022-10-10T10:01:35.177Z,21.63
2022-10-10T10:04:33.713Z,20.56
2022-10-10T10:07:23.692Z,20.69
2022-10-10T10:09:55.615Z,20.99
2022-10-10T10:12:29.633Z,22.57
2022-10-10T10:15:07.176Z,22.86
2022-10-10T10:17:34.131Z,23.09
2022-10-10T10:20:01.182Z,23.35
2022-10-10T10:22:38.555Z,24.08
2022-10-10T10:25:31.982Z,23.62
2022-10-10T10:28:11.038Z,24.98
2022-10-10T10:30:39.924Z,24.36
2022-10-10T10:33:32.963Z,24.31
2022-10-10T10:36:18.502Z,23.56
2022-10-10T10:39:24.595Z,23.65
2022-10-10T10:42:11.889Z,23.42
2022-10-10T10:45:20.557Z,23.17
2022-10-10T10:48:29.249Z,24.50
2022-10-10T10:51:23.371Z,24.14
2022-10-10T10:54:32.033Z,23.54
2022-10-10T10:57:11.288Z,23.26
2022-10-10T11:00:25.769Z,24.36
2022-10-10T11:04:15.867Z,24.47
2022-10-10T11:07:00.124Z,25.03
2022-10-10T11:09:51.105Z,24.21
2022-10-10T11:13:05.946Z,24.34
2022-10-10T11:16:04.742Z,24.52
2022-10-10T11:18:43.449Z,24.63
2022-10-10T11:21:26.778Z,25.04
2022-10-10T11:23:58.840Z,24.56
2022-10-10T11:26:32.949Z,24.69
2022-10-10T11:29:06.632Z,26.27
2022-10-10T11:31:40.441Z,29.57
2022-10-10T11:34:17.009Z,30.38
2022-10-10T11:36:45.996Z,30.06
2022-10-10T11:39:23.668Z,31.17
2022-10-10T11:42:06.716Z,31.08
2022-10-10T11:45:01.570Z,29.00
2022-10-10T11:47:39.414Z,28.29
2022-10-10T11:50:19.674Z,30.54
2022-10-10T11:53:02.248Z,31.37
2022-10-10T11:55:55.655Z,30.85
2022-10-10T11:58:27.180Z,31.37
2022-10-10T12:00:59.745Z,29.02
2022-10-10T12:03:26.762Z,29.38
2022-10-10T12:06:02.316Z,28.70
2022-10-10T12:08:40.255Z,28.93
2022-10-10T12:11:17.938Z,30.22
2022-10-10T12:13:49.662Z,28.10
2022-10-10T12:16:21.750Z,28.74
2022-10-10T12:19:07.170Z,28.99
2022-10-10T12:22:01.849Z,28.90
2022-10-10T12:24:39.749Z,27.11
2022-10-10T12:27:26.653Z,27.90
2022-10-10T12:30:16.227Z,28.81
2022-10-10T12:32:45.968Z,28.19
2022-10-10T12:35:41.133Z,28.66
2022-10-10T12:38:16.962Z,28.69
2022-10-10T12:41:09.321Z,27.83
2022-10-10T12:44:21.545Z,30.05
2022-10-10T12:47:11.001Z,29.08
2022-10-10T12:49:38.702Z,30.61
2022-10-10T12:52:15.430Z,32.53
2022-10-10T12:54:44.789Z,32.19
2022-10-10T12:57:11.690Z,28.19
2022-10-10T12:59:39.132Z,29.29
2022-10-10T13:02:23.779Z,28.80
2022-10-10T13:04:54.543Z,28.89
2022-10-10T13:07:22.898Z,28.21
2022-10-10T13:09:53.509Z,28.19
2022-10-10T13:12:30.168Z,27.96
2022-10-10T13:14:57.899Z,29.82
2022-10-10T13:17:41.796Z,32.50
2022-10-10T13:20:38.343Z,32.49
2022-10-10T13:23:17.560Z,36.92
2022-10-10T13:26:33.670Z,32.08
2022-10-10T13:29:16.683Z,31.34
2022-10-10T13:31:44.348Z,30.38
2022-10-10T13:34:17.464Z,31.87
2022-10-10T13:36:46.019Z,34.79
2022-10-10T13:39:19.786Z,36.15
2022-10-10T13:41:47.847Z,36.68
2022-10-10T13:44:25.868Z,37.55
2022-10-10T13:46:53.367Z,35.62
2022-10-10T13:49:27.941Z,34.55
2022-10-10T13:52:06.030Z,35.00
2022-10-10T13:54:45.678Z,30.93
2022-10-10T13:57:24.651Z,31.74
2022-10-10T14:00:14.811Z,31.24
2022-10-10T14:02:44.472Z,29.08
2022-10-10T14:05:32.054Z,28.35
2022-10-10T14:07:59.477Z,30.38
2022-10-10T14:10:28.768Z,31.37
2022-10-10T14:13:00.465Z,29.30
2022-10-10T14:15:44.639Z,27.16
2022-10-10T14:18:45.069Z,27.19
2022-10-10T14:21:12.400Z,27.17
2022-10-10T14:23:39.992Z,27.82
2022-10-10T14:26:15.191Z,27.97
2022-10-10T14:28:46.412Z,28.21
2022-10-10T14:32:13.263Z,27.85
2022-10-10T14:34:40.660Z,27.75
2022-10-10T14:37:26.796Z,28.55
2022-10-10T14:39:55.395Z,26.78
2022-10-10T14:42:24.326Z,27.20
2022-10-10T14:44:51.696Z,26.85
2022-10-10T14:47:24.388Z,26.81
2022-10-10T14:49:56.554Z,26.32
2022-10-10T14:52:23.492Z,26.14
2022-10-10T14:54:50.398Z,26.05
2022-10-10T14:57:22.792Z,26.26
2022-10-10T14:59:50.422Z,26.31
2022-10-10T15:02:22.307Z,26.44
2022-10-10T15:04:50.078Z,26.21
2022-10-10T15:07:17.823Z,26.20
2022-10-10T15:10:26.138Z,25.97
2022-10-10T15:12:40.163Z,26.60
2022-10-10T15:15:08.603Z,26.40
2022-10-10T15:17:35.777Z,26.00
2022-10-10T15:20:05.982Z,26.77
2022-10-10T15:22:33.233Z,25.91
2022-10-10T15:25:01.655Z,26.54
2022-10-10T15:27:28.573Z,25.87
2022-10-10T15:29:56.014Z,25.27
2022-10-10T15:32:23.129Z,25.52
2022-10-10T15:34:50.351Z,25.98
2022-10-10T15:37:18.752Z,25.49
2022-10-10T15:39:46.209Z,24.82
2022-10-10T15:42:18.528Z,25.67
2022-10-10T15:44:49.765Z,26.29
2022-10-10T15:47:19.157Z,26.55
2022-10-10T15:49:46.437Z,26.85
2022-10-10T15:52:13.655Z,26.49
2022-10-10T15:54:40.708Z,26.39
2022-10-10T15:57:07.950Z,26.95
2022-10-10T15:59:36.924Z,25.89
2022-10-10T16:02:06.350Z,26.01
2022-10-10T16:04:33.875Z,25.24
2022-10-10T16:09:47.884Z,25.60
2022-10-10T16:12:15.037Z,26.12
2022-10-10T16:14:42.466Z,26.14
2022-10-10T16:17:09.466Z,26.04
2022-10-10T16:19:36.423Z,26.30
2022-10-10T16:22:03.335Z,26.65
2022-10-10T16:24:30.608Z,26.54
2022-10-10T16:26:59.399Z,26.39
2022-10-10T16:29:26.473Z,26.32
2022-10-10T16:31:53.770Z,26.35
2022-10-10T16:34:20.917Z,26.49
2022-10-10T16:36:47.906Z,26.28
2022-10-10T16:39:14.898Z,26.12
2022-10-10T16:41:49.430Z,25.82
2022-10-10T16:44:17.253Z,25.55
2022-10-10T16:46:44.150Z,25.78
2022-10-10T16:49:16.352Z,25.95
2022-10-10T16:51:43.917Z,25.74
2022-10-10T16:54:10.869Z,25.65
2022-10-10T16:56:38.188Z,25.66
2022-10-10T16:59:05.863Z,25.44
2022-10-10T17:01:32.885Z,25.25
2022-10-10T17:04:01.240Z,25.74
2022-10-10T17:06:34.895Z,25.68
2022-10-10T17:09:02.710Z,25.73
2022-10-10T17:11:29.946Z,25.81
2022-10-10T17:13:57.142Z,25.71
2022-10-10T17:17:06.830Z,25.92
2022-10-10T17:19:14.665Z,25.38
2022-10-10T17:21:41.608Z,25.24
2022-10-10T17:24:08.588Z,25.10
2022-10-10T17:26:35.607Z,25.01
2022-10-10T17:29:02.516Z,25.09
2022-10-10T17:31:29.562Z,25.22
2022-10-10T17:33:57.466Z,25.29
2022-10-10T17:36:27.262Z,25.92
2022-10-10T17:39:01.388Z,25.19
2022-10-10T17:41:29.265Z,24.44
2022-10-10T17:43:56.639Z,24.90
2022-10-10T17:46:35.850Z,25.10
2022-10-10T17:49:05.473Z,25.15
2022-10-10T17:51:32.765Z,25.63
2022-10-10T17:54:00.492Z,25.15
2022-10-10T17:56:27.838Z,24.87
2022-10-10T17:58:54.852Z,24.50
2022-10-10T18:01:21.787Z,24.35
2022-10-10T18:03:48.897Z,24.85
2022-10-10T18:06:20.500Z,23.66
2022-10-10T18:08:51.602Z,24.41
2022-10-10T18:11:23.736Z,25.22
2022-10-10T18:13:51.705Z,25.24
2022-10-10T18:16:21.920Z,25.41
2022-10-10T18:18:51.871Z,25.41
2022-10-10T18:21:23.778Z,25.39
2022-10-10T18:23:51.637Z,25.43
2022-10-10T18:26:23.052Z,25.47
2022-10-10T18:28:52.381Z,25.21
2022-10-10T18:31:39.183Z,25.23
2022-10-10T18:34:07.411Z,24.88
2022-10-10T18:36:37.553Z,24.56
2022-10-10T18:39:12.657Z,25.19
2022-10-10T18:41:40.524Z,25.10
2022-10-10T18:44:12.566Z,25.20
2022-10-10T18:46:39.979Z,25.21
2022-10-10T18:49:11.611Z,25.16
2022-10-10T18:51:41.275Z,25.05
2022-10-10T18:54:11.579Z,24.65
2022-10-10T18:56:40.615Z,24.82
2022-10-10T18:59:16.812Z,23.07
2022-10-10T19:01:46.440Z,22.50
2022-10-10T19:04:15.067Z,22.48
2022-10-10T19:06:43.432Z,22.62
2022-10-10T19:09:13.099Z,21.37
2022-10-10T19:11:42.179Z,21.80
2022-10-10T19:14:13.681Z,20.94
2022-10-10T19:16:42.344Z,21.66
2022-10-10T19:19:11.014Z,21.70
2022-10-10T19:21:39.239Z,21.61
2022-10-10T19:24:08.711Z,22.67
2022-10-10T19:26:36.403Z,22.68
2022-10-10T19:29:08.414Z,23.17
2022-10-10T19:31:37.031Z,23.15
2022-10-10T19:34:04.493Z,23.22
2022-10-10T19:36:31.447Z,22.20
2022-10-10T19:39:00.164Z,21.68
2022-10-10T19:41:27.903Z,22.37
2022-10-10T19:43:54.951Z,23.25
2022-10-10T19:46:23.327Z,23.58
2022-10-10T19:48:51.236Z,23.21
2022-10-10T19:51:19.475Z,23.64
2022-10-10T19:53:46.617Z,23.77
2022-10-10T19:56:21.892Z,24.14
2022-10-10T19:58:48.849Z,22.63
2022-10-10T20:01:17.785Z,23.17
2022-10-10T20:03:46.340Z,22.63
2022-10-10T20:06:15.295Z,22.26
2022-10-10T20:08:42.283Z,22.06
2022-10-10T20:11:09.909Z,21.76
2022-10-10T20:13:37.025Z,22.66
2022-10-10T20:16:08.770Z,24.35
2022-10-10T20:18:41.282Z,22.35
2022-10-10T20:21:22.873Z,23.38
2022-10-10T20:23:50.174Z,34.29
2022-10-10T20:26:20.772Z,30.99
2022-10-10T20:28:49.144Z,29.26
2022-10-10T20:31:24.320Z,30.49
2022-10-10T20:33:53.499Z,25.97
2022-10-10T20:36:22.283Z,30.16
2022-10-10T20:39:00.892Z,29.33
2022-10-10T20:41:31.277Z,28.58
2022-10-10T20:44:00.991Z,27.30
2022-10-10T20:46:30.693Z,29.73
2022-10-10T20:48:59.916Z,26.01
2022-10-10T20:51:28.316Z,31.29
2022-10-10T20:54:01.081Z,33.13
2022-10-10T20:56:29.519Z,34.33
2022-10-10T20:58:56.840Z,31.58
2022-10-10T21:01:27.694Z,30.03
2022-10-10T21:03:55.259Z,31.39
2022-10-10T21:06:24.980Z,33.32
2022-10-10T21:08:53.464Z,31.71
2022-10-10T21:11:22.977Z,31.12
2022-10-10T21:13:57.084Z,31.68
2022-10-10T21:16:27.731Z,30.63
2022-10-10T21:18:57.891Z,31.35
2022-10-10T21:21:28.170Z,31.36
2022-10-10T21:23:56.689Z,31.36
2022-10-10T21:26:26.515Z,32.29
2022-10-10T21:28:54.545Z,29.26
2022-10-10T21:31:30.865Z,29.56
2022-10-10T21:34:00.589Z,28.85
2022-10-10T21:36:27.539Z,30.03
2022-10-10T21:38:59.064Z,29.42
2022-10-10T21:41:26.272Z,29.21
2022-10-10T21:43:56.685Z,28.99
2022-10-10T21:46:34.763Z,28.27
2022-10-10T21:49:10.108Z,27.94
2022-10-10T21:51:40.211Z,27.44
2022-10-10T21:54:08.234Z,27.75
2022-10-10T21:56:35.697Z,27.35
2022-10-10T21:59:03.017Z,28.52
2022-10-10T22:01:32.939Z,27.87
2022-10-10T22:04:01.659Z,28.24
2022-10-10T22:06:28.843Z,28.80
2022-10-10T22:08:58.762Z,28.42
2022-10-10T22:11:28.366Z,27.38
2022-10-10T22:13:55.410Z,28.38
2022-10-10T22:16:22.625Z,28.75
2022-10-10T22:18:54.396Z,28.92
2022-10-10T22:21:21.587Z,28.94
2022-10-10T22:23:49.006Z,28.48
2022-10-10T22:26:17.111Z,29.32
2022-10-10T22:28:45.606Z,28.19
2022-10-10T22:31:15.738Z,28.73
2022-10-10T22:33:42.709Z,29.15
2022-10-10T22:36:10.440Z,28.55
2022-10-10T22:38:40.801Z,28.72
2022-10-10T22:41:08.490Z,29.34
2022-10-10T22:43:35.712Z,30.64
2022-10-10T22:46:03.932Z,31.46
2022-10-10T22:48:30.965Z,30.71
2022-10-10T22:51:09.071Z,30.63
2022-10-10T22:53:36.203Z,28.85
2022-10-10T22:56:04.040Z,29.75
2022-10-10T22:58:34.352Z,27.99
2022-10-10T23:01:15.865Z,29.01
2022-10-10T23:03:43.656Z,26.88
2022-10-10T23:06:11.207Z,26.92
2022-10-10T23:08:38.101Z,28.08
2022-10-10T23:11:05.567Z,28.20
2022-10-10T23:13:32.738Z,27.53
2022-10-10T23:15:59.701Z,27.01
2022-10-10T23:18:28.843Z,27.80
2022-10-10T23:20:56.117Z,28.11
2022-10-10T23:23:23.018Z,30.31
2022-10-10T23:25:50.027Z,29.41
2022-10-10T23:28:17.891Z,28.85
2022-10-10T23:30:47.377Z,28.77
2022-10-10T23:33:15.450Z,29.44
2022-10-10T23:35:42.806Z,28.63
2022-10-10T23:38:09.669Z,30.26
2022-10-10T23:40:36.601Z,29.33
2022-10-10T23:43:03.812Z,29.62
2022-10-10T23:45:31.200Z,29.58
2022-10-10T23:47:58.539Z,29.75
2022-10-10T23:50:25.404Z,29.93
2022-10-10T23:52:52.283Z,29.78
2022-10-10T23:55:19.163Z,29.29
2022-10-10T23:57:46.076Z,29.17
